createdAt,value
2022-10-24T00:01:27.824Z,7.72
2022-10-24T00:03:55.447Z,8.04
2022-10-24T00:06:23.106Z,8.24
2022-10-24T00:08:51.235Z,8.27
2022-10-24T00:11:24.516Z,8.28
2022-10-24T00:13:53.550Z,8.23
2022-10-24T00:16:23.171Z,8.15
2022-10-24T00:18:51.184Z,8.17
2022-10-24T00:21:19.095Z,8.13
2022-10-24T00:23:47.071Z,8.09
2022-10-24T00:26:15.955Z,7.96
2022-10-24T00:28:44.121Z,7.86
2022-10-24T00:31:16.532Z,7.99
2022-10-24T00:33:45.339Z,8.06
2022-10-24T00:36:15.069Z,8.12
2022-10-24T00:38:42.865Z,8.06
2022-10-24T00:41:16.241Z,8.05
2022-10-24T00:43:43.874Z,8.29
2022-10-24T00:46:11.554Z,8.48
2022-10-24T00:48:45.299Z,8.60
2022-10-24T00:51:31.907Z,8.60
2022-10-24T00:54:05.565Z,8.68
2022-10-24T00:56:35.903Z,8.81
2022-10-24T00:59:06.292Z,8.85
2022-10-24T01:01:34.483Z,8.89
2022-10-24T01:04:02.344Z,8.93
2022-10-24T01:06:37.262Z,8.93
2022-10-24T01:09:42.610Z,8.95
2022-10-24T01:12:28.743Z,8.98
2022-10-24T01:15:23.177Z,9.01
2022-10-24T01:18:15.005Z,9.02
2022-10-24T01:20:45.658Z,9.05
2022-10-24T01:23:24.246Z,9.09
2022-10-24T01:26:23.704Z,9.09
2022-10-24T01:29:20.733Z,9.22
2022-10-24T01:31:55.001Z,9.23
2022-10-24T01:34:37.100Z,9.24
2022-10-24T01:37:08.663Z,9.11
2022-10-24T01:39:51.589Z,9.23
2022-10-24T01:42:22.626Z,9.26
2022-10-24T01:44:53.638Z,9.29
2022-10-24T01:47:27.918Z,9.30
2022-10-24T01:50:02.520Z,9.23
2022-10-24T01:52:34.085Z,9.22
2022-10-24T01:55:02.193Z,9.19
2022-10-24T01:57:31.959Z,9.18
2022-10-24T01:59:59.489Z,9.24
2022-10-24T02:02:36.399Z,9.24
2022-10-24T02:05:10.241Z,9.30
2022-10-24T02:07:40.665Z,9.27
2022-10-24T02:10:29.253Z,9.31
2022-10-24T02:13:02.923Z,9.33
2022-10-24T02:15:34.269Z,9.25
2022-10-24T02:18:02.066Z,9.16
2022-10-24T02:20:57.576Z,9.14
2022-10-24T02:23:38.564Z,9.13
2022-10-24T02:26:08.926Z,9.22
2022-10-24T02:28:40.868Z,9.27
2022-10-24T02:31:22.669Z,9.24
2022-10-24T02:33:52.165Z,9.15
2022-10-24T02:36:23.250Z,9.16
2022-10-24T02:38:52.539Z,9.13
2022-10-24T02:41:29.469Z,9.09
2022-10-24T02:43:57.938Z,9.05
2022-10-24T02:46:26.426Z,9.13
2022-10-24T02:48:57.609Z,9.11
2022-10-24T02:51:28.767Z,9.10
2022-10-24T02:53:57.808Z,9.04
2022-10-24T02:56:25.271Z,8.98
2022-10-24T02:58:52.913Z,8.97
2022-10-24T03:01:20.310Z,9.02
2022-10-24T03:03:48.155Z,9.01
2022-10-24T03:06:15.812Z,8.96
2022-10-24T03:08:43.252Z,8.90
2022-10-24T03:11:10.833Z,8.84
2022-10-24T03:13:38.443Z,8.83
2022-10-24T03:16:07.911Z,8.83
2022-10-24T03:18:38.234Z,8.84
2022-10-24T03:21:05.725Z,8.78
2022-10-24T03:23:33.469Z,8.83
2022-10-24T03:26:00.909Z,8.80
2022-10-24T03:28:28.624Z,8.78
2022-10-24T03:30:56.478Z,8.80
2022-10-24T03:33:24.149Z,8.62
2022-10-24T03:35:55.082Z,8.71
2022-10-24T03:38:23.445Z,8.71
2022-10-24T03:40:51.406Z,8.69
2022-10-24T03:43:19.382Z,8.67
2022-10-24T03:45:46.980Z,8.61
2022-10-24T03:48:14.700Z,8.67
2022-10-24T03:50:42.188Z,8.68
2022-10-24T03:53:09.924Z,8.76
2022-10-24T03:55:37.369Z,8.76
2022-10-24T03:58:05.226Z,8.66
2022-10-24T04:00:35.015Z,8.70
2022-10-24T04:03:03.093Z,8.74
2022-10-24T04:05:30.412Z,8.68
2022-10-24T04:07:58.092Z,8.71
2022-10-24T04:10:25.726Z,8.76
2022-10-24T04:12:53.518Z,8.77
2022-10-24T04:15:21.164Z,8.70
2022-10-24T04:17:48.953Z,8.76
2022-10-24T04:20:20.010Z,8.76
2022-10-24T04:22:47.972Z,8.71
2022-10-24T04:25:16.174Z,8.80
2022-10-24T04:27:44.086Z,8.88
2022-10-24T04:30:16.473Z,8.82
2022-10-24T04:32:45.411Z,8.84
2022-10-24T04:35:14.304Z,8.87
2022-10-24T04:37:42.115Z,8.86
2022-10-24T04:40:10.669Z,8.92
2022-10-24T04:42:38.279Z,8.94
2022-10-24T04:45:06.628Z,9.02
2022-10-24T04:47:34.481Z,9.05
2022-10-24T04:50:02.182Z,8.96
2022-10-24T04:52:30.335Z,9.04
2022-10-24T04:54:57.738Z,9.08
2022-10-24T04:57:25.473Z,9.09
2022-10-24T04:59:52.864Z,9.07
2022-10-24T05:02:20.655Z,9.12
2022-10-24T05:04:48.283Z,9.13
2022-10-24T05:07:15.961Z,9.15
2022-10-24T05:09:43.503Z,9.13
2022-10-24T05:12:11.164Z,9.12
2022-10-24T05:14:38.706Z,9.20
2022-10-24T05:17:06.849Z,9.22
2022-10-24T05:19:34.374Z,9.19
2022-10-24T05:22:03.240Z,9.20
2022-10-24T05:24:32.810Z,9.28
2022-10-24T05:27:00.719Z,9.33
2022-10-24T05:29:31.382Z,9.31
2022-10-24T05:31:59.297Z,9.43
2022-10-24T05:34:27.770Z,9.40
2022-10-24T05:36:55.449Z,9.52
2022-10-24T05:39:23.081Z,9.43
2022-10-24T05:41:54.479Z,9.40
2022-10-24T05:44:22.951Z,9.45
2022-10-24T05:46:50.815Z,9.45
2022-10-24T05:49:18.571Z,9.50
2022-10-24T05:51:46.889Z,9.46
2022-10-24T05:54:14.722Z,9.59
2022-10-24T05:56:42.501Z,9.64
2022-10-24T05:59:09.830Z,9.63
2022-10-24T06:01:37.514Z,9.53
2022-10-24T06:04:08.852Z,9.61
2022-10-24T06:06:43.322Z,9.62
2022-10-24T06:09:11.847Z,9.65
2022-10-24T06:11:39.859Z,9.64
2022-10-24T06:14:07.399Z,9.64
2022-10-24T06:16:35.654Z,9.61
2022-10-24T06:19:03.332Z,9.73
2022-10-24T06:21:31.038Z,9.80
2022-10-24T06:23:59.263Z,9.79
2022-10-24T06:26:26.925Z,9.87
2022-10-24T06:28:55.814Z,9.82
2022-10-24T06:31:23.515Z,9.80
2022-10-24T06:33:51.174Z,9.82
2022-10-24T06:36:19.234Z,9.92
2022-10-24T06:38:46.810Z,9.90
2022-10-24T06:41:17.180Z,9.88
2022-10-24T06:43:44.659Z,9.92
2022-10-24T06:46:15.986Z,10.00
2022-10-24T06:48:43.969Z,10.07
2022-10-24T06:51:15.355Z,10.08
2022-10-24T06:53:42.996Z,10.04
2022-10-24T06:56:10.565Z,10.07
2022-10-24T06:58:38.301Z,10.16
2022-10-24T07:01:17.050Z,10.20
2022-10-24T07:03:45.292Z,10.22
2022-10-24T07:06:27.187Z,10.20
2022-10-24T07:08:58.161Z,10.27
2022-10-24T07:11:26.531Z,10.31
2022-10-24T07:13:56.667Z,10.33
2022-10-24T07:16:27.816Z,10.32
2022-10-24T07:18:55.732Z,10.36
2022-10-24T07:21:25.974Z,10.43
2022-10-24T07:23:54.220Z,10.48
2022-10-24T07:26:23.822Z,10.56
2022-10-24T07:28:56.235Z,10.65
2022-10-24T07:31:26.629Z,10.68
2022-10-24T07:33:54.616Z,10.55
2022-10-24T07:36:24.551Z,10.58
2022-10-24T07:38:53.833Z,10.59
2022-10-24T07:41:22.071Z,10.49
2022-10-24T07:43:49.509Z,10.45
2022-10-24T07:46:18.936Z,10.36
2022-10-24T07:48:46.520Z,10.25
2022-10-24T07:51:14.650Z,10.24
2022-10-24T07:53:42.814Z,10.25
2022-10-24T07:56:13.642Z,10.25
2022-10-24T07:58:40.898Z,10.28
2022-10-24T08:01:17.271Z,10.29
2022-10-24T08:03:44.931Z,10.37
2022-10-24T08:06:15.905Z,10.43
2022-10-24T08:08:43.971Z,10.45
2022-10-24T08:11:16.951Z,10.43
2022-10-24T08:13:44.551Z,10.52
2022-10-24T08:16:14.081Z,10.57
2022-10-24T08:18:41.679Z,10.56
2022-10-24T08:21:12.080Z,10.48
2022-10-24T08:23:42.965Z,10.50
2022-10-24T08:26:13.934Z,10.66
2022-10-24T08:28:43.038Z,10.74
2022-10-24T08:31:16.619Z,10.75
2022-10-24T08:33:45.110Z,10.77
2022-10-24T08:36:36.197Z,10.80
2022-10-24T08:39:04.571Z,10.78
2022-10-24T08:41:40.896Z,10.84
2022-10-24T08:44:44.008Z,10.83
2022-10-24T08:50:28.483Z,10.96
2022-10-24T08:53:00.148Z,11.04
2022-10-24T08:55:55.419Z,11.23
2022-10-24T08:58:42.695Z,11.36
2022-10-24T09:01:30.532Z,11.55
2022-10-24T09:04:00.823Z,11.93
2022-10-24T09:06:30.722Z,12.08
2022-10-24T09:09:04.493Z,12.30
2022-10-24T09:11:50.878Z,12.54
2022-10-24T09:14:24.589Z,12.81
2022-10-24T09:16:59.968Z,13.01
2022-10-24T09:19:29.560Z,13.06
2022-10-24T09:21:59.682Z,13.22
2022-10-24T09:24:35.531Z,13.24
2022-10-24T09:27:05.356Z,13.28
2022-10-24T09:29:34.308Z,13.47
2022-10-24T09:32:02.544Z,13.60
2022-10-24T09:34:30.744Z,13.64
2022-10-24T09:36:58.245Z,13.73
2022-10-24T09:39:29.300Z,13.83
2022-10-24T09:41:58.119Z,13.84
2022-10-24T09:44:47.176Z,13.62
2022-10-24T09:47:29.319Z,13.69
2022-10-24T09:49:57.645Z,13.69
2022-10-24T09:52:26.935Z,13.56
2022-10-24T09:55:19.303Z,13.64
2022-10-24T09:57:47.599Z,13.61
2022-10-24T10:00:22.970Z,13.68
2022-10-24T10:03:24.224Z,13.70
2022-10-24T10:05:56.051Z,13.82
2022-10-24T10:08:32.880Z,13.95
2022-10-24T10:11:06.140Z,13.97
2022-10-24T10:13:49.836Z,13.93
2022-10-24T10:16:32.971Z,13.97
2022-10-24T10:19:03.358Z,13.96
2022-10-24T10:21:54.488Z,13.97
2022-10-24T10:24:41.226Z,14.06
2022-10-24T10:27:46.651Z,14.15
2022-10-24T10:30:19.302Z,14.11
2022-10-24T10:32:58.789Z,14.15
2022-10-24T10:35:41.600Z,14.24
2022-10-24T10:38:38.020Z,14.21
2022-10-24T10:41:19.586Z,14.33
2022-10-24T10:44:05.071Z,14.43
2022-10-24T10:46:36.896Z,14.55
2022-10-24T10:49:25.130Z,14.67
2022-10-24T10:51:58.726Z,14.65
2022-10-24T10:55:00.109Z,14.71
2022-10-24T10:57:37.709Z,14.75
2022-10-24T11:00:24.690Z,14.71
2022-10-24T11:03:00.127Z,14.79
2022-10-24T11:05:40.444Z,14.77
2022-10-24T11:08:50.924Z,14.77
2022-10-24T11:11:23.386Z,14.69
2022-10-24T11:14:22.201Z,14.68
2022-10-24T11:16:51.242Z,14.70
2022-10-24T11:19:32.733Z,14.71
2022-10-24T11:22:04.319Z,14.76
2022-10-24T11:24:41.873Z,14.81
2022-10-24T11:27:41.063Z,14.87
2022-10-24T11:30:22.817Z,14.93
2022-10-24T11:32:55.374Z,14.90
2022-10-24T11:35:33.547Z,15.03
2022-10-24T11:38:13.336Z,15.12
2022-10-24T11:40:43.141Z,15.11
2022-10-24T11:43:23.111Z,15.21
2022-10-24T11:46:14.989Z,15.17
2022-10-24T11:48:59.447Z,15.16
2022-10-24T11:51:41.219Z,15.24
2022-10-24T11:54:19.700Z,15.33
2022-10-24T11:56:53.909Z,15.37
2022-10-24T11:59:26.364Z,15.41
2022-10-24T12:01:56.281Z,15.49
2022-10-24T12:05:02.496Z,15.70
2022-10-24T12:08:10.536Z,15.99
2022-10-24T12:11:00.473Z,15.98
2022-10-24T12:13:46.493Z,16.17
2022-10-24T12:16:49.440Z,16.36
2022-10-24T12:19:20.198Z,16.58
2022-10-24T12:21:53.113Z,16.71
2022-10-24T12:24:30.518Z,16.77
2022-10-24T12:27:03.010Z,16.88
2022-10-24T12:29:33.989Z,16.87
2022-10-24T12:32:39.979Z,16.87
2022-10-24T12:35:30.501Z,16.86
2022-10-24T12:37:59.933Z,16.84
2022-10-24T12:40:46.275Z,16.78
2022-10-24T12:43:47.684Z,16.78
2022-10-24T12:46:21.776Z,16.93
2022-10-24T12:48:57.598Z,16.96
2022-10-24T12:51:33.117Z,16.94
2022-10-24T12:54:13.707Z,16.77
2022-10-24T12:56:53.589Z,16.74
2022-10-24T12:59:34.529Z,16.75
2022-10-24T13:02:24.915Z,16.74
2022-10-24T13:05:18.580Z,16.84
2022-10-24T13:07:53.027Z,16.89
2022-10-24T13:10:45.087Z,16.91
2022-10-24T13:13:32.711Z,16.89
2022-10-24T13:16:26.291Z,16.95
2022-10-24T13:19:22.290Z,16.94
2022-10-24T13:21:55.045Z,16.93
2022-10-24T13:24:29.195Z,16.94
2022-10-24T13:26:57.634Z,16.99
2022-10-24T13:29:28.515Z,16.98
2022-10-24T13:32:08.949Z,17.02
2022-10-24T13:34:55.564Z,16.91
2022-10-24T13:37:26.290Z,16.93
2022-10-24T13:40:15.632Z,16.89
2022-10-24T13:42:54.811Z,16.79
2022-10-24T13:45:42.044Z,16.71
2022-10-24T13:48:28.246Z,16.69
2022-10-24T13:51:38.438Z,16.65
2022-10-24T13:54:15.848Z,16.65
2022-10-24T13:56:45.532Z,16.64
2022-10-24T13:59:39.817Z,16.62
2022-10-24T14:02:18.470Z,16.59
2022-10-24T14:04:47.965Z,16.60
2022-10-24T14:07:22.721Z,16.58
2022-10-24T14:09:57.291Z,16.56
2022-10-24T14:12:27.970Z,16.63
2022-10-24T14:14:57.452Z,16.51
2022-10-24T14:17:31.914Z,16.52
2022-10-24T14:20:18.448Z,16.42
2022-10-24T14:22:46.911Z,16.35
2022-10-24T14:25:35.673Z,16.36
2022-10-24T14:28:16.205Z,16.33
2022-10-24T14:31:27.309Z,16.33
2022-10-24T14:33:56.532Z,16.29
2022-10-24T14:36:29.336Z,16.21
2022-10-24T14:38:59.501Z,16.15
2022-10-24T14:41:30.580Z,16.09
2022-10-24T14:43:59.823Z,15.99
2022-10-24T14:46:34.299Z,15.87
2022-10-24T14:49:30.727Z,15.80
2022-10-24T14:52:02.773Z,15.75
2022-10-24T14:54:32.929Z,15.61
2022-10-24T14:57:03.639Z,15.60
2022-10-24T14:59:36.502Z,15.51
2022-10-24T15:02:28.387Z,15.37
2022-10-24T15:05:14.919Z,15.17
2022-10-24T15:07:57.197Z,15.04
2022-10-24T15:10:44.620Z,14.90
2022-10-24T15:13:21.887Z,14.78
2022-10-24T15:15:58.804Z,14.65
2022-10-24T15:18:27.121Z,14.56
2022-10-24T15:21:11.703Z,14.27
2022-10-24T15:23:56.240Z,14.34
2022-10-24T15:26:44.849Z,14.23
2022-10-24T15:29:13.214Z,14.10
2022-10-24T15:31:45.129Z,13.94
2022-10-24T15:34:22.691Z,13.82
2022-10-24T15:36:52.371Z,13.69
2022-10-24T15:39:26.481Z,13.57
2022-10-24T15:41:55.595Z,13.45
2022-10-24T15:44:28.153Z,13.34
2022-10-24T15:46:56.870Z,13.20
2022-10-24T15:49:25.138Z,13.10
2022-10-24T15:51:52.916Z,13.01
2022-10-24T15:54:22.514Z,12.94
2022-10-24T15:56:52.225Z,12.82
2022-10-24T15:59:20.925Z,12.75
2022-10-24T16:01:54.807Z,12.68
2022-10-24T16:04:23.878Z,12.59
2022-10-24T16:06:52.410Z,12.51
2022-10-24T16:09:25.229Z,12.44
2022-10-24T16:11:53.451Z,12.35
2022-10-24T16:14:25.865Z,12.29
2022-10-24T16:16:55.456Z,12.26
2022-10-24T16:19:26.930Z,12.17
2022-10-24T16:21:58.918Z,12.07
2022-10-24T16:24:28.489Z,12.04
2022-10-24T16:26:57.149Z,12.00
2022-10-24T16:29:25.749Z,11.92
2022-10-24T16:31:53.678Z,11.84
2022-10-24T16:34:22.142Z,11.79
2022-10-24T16:36:53.956Z,11.72
2022-10-24T16:39:22.148Z,11.60
2022-10-24T16:41:54.203Z,11.60
2022-10-24T16:44:22.871Z,11.53
2022-10-24T16:46:53.712Z,11.50
2022-10-24T16:49:22.023Z,11.44
2022-10-24T16:51:50.079Z,11.34
2022-10-24T16:54:19.822Z,11.34
2022-10-24T16:56:53.648Z,11.28
2022-10-24T16:59:22.279Z,11.21
2022-10-24T17:01:51.155Z,11.11
2022-10-24T17:04:19.713Z,10.99
2022-10-24T17:06:47.740Z,10.93
2022-10-24T17:09:16.078Z,10.92
2022-10-24T17:11:45.793Z,10.85
2022-10-24T17:14:14.951Z,10.78
2022-10-24T17:16:44.281Z,10.76
2022-10-24T17:19:16.234Z,10.70
2022-10-24T17:21:47.533Z,10.67
2022-10-24T17:24:19.171Z,10.58
2022-10-24T17:26:48.052Z,10.57
2022-10-24T17:29:27.432Z,10.54
2022-10-24T17:31:55.353Z,10.50
2022-10-24T17:34:24.048Z,10.48
2022-10-24T17:37:08.413Z,10.43
2022-10-24T17:39:45.847Z,10.34
2022-10-24T17:42:13.869Z,10.34
2022-10-24T17:44:43.278Z,10.32
2022-10-24T17:47:12.519Z,10.24
2022-10-24T17:49:41.257Z,10.18
2022-10-24T17:52:12.295Z,10.09
2022-10-24T17:54:44.905Z,10.03
2022-10-24T17:57:14.281Z,10.04
2022-10-24T17:59:42.616Z,10.00
2022-10-24T18:02:14.571Z,9.93
2022-10-24T18:04:44.873Z,9.91
2022-10-24T18:07:13.115Z,9.89
2022-10-24T18:09:41.512Z,9.83
2022-10-24T18:12:10.493Z,9.84
2022-10-24T18:14:38.822Z,9.79
2022-10-24T18:17:06.938Z,9.78
2022-10-24T18:19:35.616Z,9.74
2022-10-24T18:22:04.911Z,9.73
2022-10-24T18:24:33.799Z,9.69
2022-10-24T18:27:01.939Z,9.69
2022-10-24T18:29:30.482Z,9.68
2022-10-24T18:31:58.509Z,9.73
2022-10-24T18:34:26.797Z,9.67
2022-10-24T18:36:54.584Z,9.74
2022-10-24T18:39:26.292Z,9.77
2022-10-24T18:42:00.915Z,9.77
2022-10-24T18:44:32.262Z,9.73
2022-10-24T18:47:03.161Z,9.81
2022-10-24T18:49:33.757Z,9.81
2022-10-24T18:52:11.882Z,9.80
2022-10-24T18:55:13.473Z,9.79
2022-10-24T18:57:41.582Z,9.81
2022-10-24T19:00:13.899Z,9.83
2022-10-24T19:02:54.555Z,9.88
2022-10-24T19:05:25.938Z,9.91
2022-10-24T19:07:54.742Z,9.83
2022-10-24T19:10:26.363Z,9.94
2022-10-24T19:12:55.933Z,9.92
2022-10-24T19:15:25.799Z,9.94
2022-10-24T19:17:54.165Z,9.95
2022-10-24T19:20:24.514Z,10.05
2022-10-24T19:22:52.882Z,10.12
2022-10-24T19:25:21.101Z,10.15
2022-10-24T19:27:50.012Z,10.16
2022-10-24T19:30:18.936Z,10.15
2022-10-24T19:32:47.269Z,10.19
2022-10-24T19:35:17.847Z,10.23
2022-10-24T19:37:46.075Z,10.27
2022-10-24T19:40:14.837Z,10.30
2022-10-24T19:42:42.728Z,10.33
2022-10-24T19:45:11.221Z,10.33
2022-10-24T19:47:38.971Z,10.38
2022-10-24T19:50:08.079Z,10.38
2022-10-24T19:52:36.415Z,10.41
2022-10-24T19:55:05.357Z,10.42
2022-10-24T19:57:33.603Z,10.46
2022-10-24T20:00:02.399Z,10.48
2022-10-24T20:02:39.281Z,10.46
2022-10-24T20:05:08.552Z,10.49
2022-10-24T20:07:36.357Z,10.54
2022-10-24T20:10:05.146Z,10.58
2022-10-24T20:12:33.463Z,10.61
2022-10-24T20:15:01.403Z,10.70
2022-10-24T20:17:30.012Z,10.70
2022-10-24T20:19:58.537Z,10.77
2022-10-24T20:22:26.405Z,10.91
2022-10-24T20:24:54.987Z,11.00
2022-10-24T20:27:26.801Z,11.15
2022-10-24T20:29:55.641Z,11.27
2022-10-24T20:32:23.826Z,11.38
2022-10-24T20:34:52.191Z,11.47
2022-10-24T20:37:20.469Z,11.56
2022-10-24T20:39:49.481Z,11.70
2022-10-24T20:42:18.181Z,11.87
2022-10-24T20:44:46.749Z,11.99
2022-10-24T20:47:15.282Z,12.16
2022-10-24T20:49:43.522Z,12.33
2022-10-24T20:54:41.760Z,12.55
2022-10-24T20:57:10.393Z,12.67
2022-10-24T20:59:40.530Z,12.76
2022-10-24T21:02:10.826Z,12.77
2022-10-24T21:04:39.578Z,12.91
2022-10-24T21:07:07.349Z,12.91
2022-10-24T21:09:35.795Z,13.02
2022-10-24T21:12:04.419Z,13.12
2022-10-24T21:14:32.531Z,13.16
2022-10-24T21:17:01.064Z,13.19
2022-10-24T21:19:30.888Z,13.25
2022-10-24T21:21:59.205Z,13.29
2022-10-24T21:24:27.279Z,13.33
2022-10-24T21:26:55.661Z,13.36
2022-10-24T21:29:39.115Z,13.41
2022-10-24T21:32:07.563Z,13.49
2022-10-24T21:34:35.785Z,13.51
2022-10-24T21:37:04.653Z,13.56
2022-10-24T21:39:33.297Z,13.61
2022-10-24T21:42:01.666Z,13.62
2022-10-24T21:44:30.202Z,13.66
2022-10-24T21:46:58.312Z,13.61
2022-10-24T21:49:26.348Z,13.59
2022-10-24T21:51:54.272Z,13.65
2022-10-24T21:54:24.208Z,13.69
2022-10-24T21:56:52.221Z,13.68
2022-10-24T21:59:21.493Z,13.71
2022-10-24T22:01:51.926Z,13.70
2022-10-24T22:04:21.713Z,13.73
2022-10-24T22:06:49.757Z,13.74
2022-10-24T22:09:20.620Z,13.75
2022-10-24T22:11:48.798Z,13.75
2022-10-24T22:14:18.238Z,13.76
2022-10-24T22:16:46.204Z,13.77
2022-10-24T22:19:14.913Z,13.79
2022-10-24T22:21:44.983Z,13.78
2022-10-24T22:24:17.323Z,13.77
2022-10-24T22:26:46.205Z,13.66
2022-10-24T22:29:17.524Z,13.76
2022-10-24T22:31:46.299Z,13.68
2022-10-24T22:34:20.368Z,13.59
2022-10-24T22:37:07.254Z,13.58
2022-10-24T22:39:35.957Z,13.55
2022-10-24T22:42:07.129Z,13.53
2022-10-24T22:44:35.547Z,13.57
2022-10-24T22:47:09.220Z,13.57
2022-10-24T22:49:47.509Z,13.57
2022-10-24T22:52:15.521Z,13.54
2022-10-24T22:54:43.966Z,13.54
2022-10-24T22:57:12.119Z,13.49
2022-10-24T22:59:40.428Z,13.43
2022-10-24T23:02:33.948Z,13.46
2022-10-24T23:05:34.793Z,13.40
2022-10-24T23:08:12.634Z,13.30
2022-10-24T23:10:41.119Z,13.31
2022-10-24T23:13:09.896Z,13.27
2022-10-24T23:15:38.703Z,13.23
2022-10-24T23:18:09.111Z,13.17
2022-10-24T23:20:43.829Z,13.20
2022-10-24T23:23:28.147Z,13.21
2022-10-24T23:26:04.765Z,13.20
2022-10-24T23:28:51.373Z,13.18
2022-10-24T23:31:20.120Z,13.17
2022-10-24T23:33:48.668Z,13.17
2022-10-24T23:36:25.054Z,13.18
2022-10-24T23:38:56.306Z,13.10
2022-10-24T23:41:24.820Z,13.05
2022-10-24T23:43:53.199Z,13.01
2022-10-24T23:46:49.868Z,12.94
2022-10-24T23:49:38.288Z,12.92
2022-10-24T23:52:26.912Z,12.91
2022-10-24T23:54:56.141Z,12.88
2022-10-24T23:57:24.850Z,12.79
2022-10-24T23:59:52.960Z,12.87
